Takamine — 7JKK — position and weather

sailwx.info

Track history (hours):
 
Tides and Currents Weather Stations Pressure Air Temp Water Temp Dewpoint Dewpoint Depression Visibility Wind Speed Wind Dir Waves Ship Positions

Takamine

Last reported at 2017-Dec-26 04:29 UTC. Time now 2018-Jan-21 20:51 UTC.
Position N 01°22' E 103°14'.
Warning: this ship's position is 26 days out of date.

Length 333 m; draft 10.5 m.

Type: Tanker. MMSI: 432832000.

Date/timePositionNaut miles runAvg speedWind from/ knotsBaromVisibWave heightAir tempDewpointWater temp
2017-Dec-26 04:29N 01°22' E 103°14'715.1
2017-Dec-26 04:00N 01°18' E 103°20'815.3
2017-Dec-26 03:30N 01°14' E 103°26'815.6
2017-Dec-26 03:00N 01°12' E 103°34'713.8
2017-Dec-26 02:30N 01°10' E 103°41'510.7
2017-Dec-26 02:00N 01°09' E 103°46'714.6
2017-Dec-26 01:30N 01°12' E 103°53'713.3
2017-Dec-26 01:00N 01°15' E 103°59'713.2
2017-Dec-26 00:30N 01°17' E 104°05'1 0.1
2017-Dec-25 13:09N 01°18' E 104°06'0 0.0
2017-Dec-25 09:24N 01°18' E 104°06'0 0.1
2017-Dec-25 04:42N 01°18' E 104°05'0 0.1
2017-Dec-25 01:46N 01°18' E 104°05'1 2.2
2017-Dec-25 01:28N 01°18' E 104°05'2 4.9
2017-Dec-25 00:59N 01°17' E 104°07'14 8.4
2017-Dec-24 23:16N 01°20' E 104°21'3 9.4
2017-Dec-24 23:00N 01°22' E 104°23'  
Track history (hours):
 
Tides and Currents Weather Stations Pressure Air Temp Water Temp Dewpoint Dewpoint Depression Visibility Wind Speed Wind Dir Waves Ship Positions

Takamine

Last reported at 2017-Dec-26 04:29 UTC. Time now 2018-Jan-21 20:51 UTC.
Position N 01°22' E 103°14'.
Warning: this ship's position is 26 days out of date.

Length 333 m; draft 10.5 m.

Type: Tanker. MMSI: 432832000.

Date/timePositionNaut miles runAvg speedWind from/ knotsBaromVisibWave heightAir tempDewpointWater temp
2017-Dec-26 04:29N 01°22' E 103°14'715.1
2017-Dec-26 04:00N 01°18' E 103°20'815.3
2017-Dec-26 03:30N 01°14' E 103°26'815.6
2017-Dec-26 03:00N 01°12' E 103°34'713.8
2017-Dec-26 02:30N 01°10' E 103°41'510.7
2017-Dec-26 02:00N 01°09' E 103°46'714.6
2017-Dec-26 01:30N 01°12' E 103°53'713.3
2017-Dec-26 01:00N 01°15' E 103°59'713.2
2017-Dec-26 00:30N 01°17' E 104°05'1 0.1
2017-Dec-25 13:09N 01°18' E 104°06'0 0.0
2017-Dec-25 09:24N 01°18' E 104°06'0 0.1
2017-Dec-25 04:42N 01°18' E 104°05'0 0.1
2017-Dec-25 01:46N 01°18' E 104°05'1 2.2
2017-Dec-25 01:28N 01°18' E 104°05'2 4.9
2017-Dec-25 00:59N 01°17' E 104°07'14 8.4
2017-Dec-24 23:16N 01°20' E 104°21'3 9.4
2017-Dec-24 23:00N 01°22' E 104°23'  

Dump ship's entire track history